sensor_id;sensor_type;location;lat;lon;timestamp;P1;durP1;ratioP1;P2;durP2;ratioP2
17854;SDS011;9053;53.358;6.382;2024-03-23T00:53:07;12.07;;;3.80;;
17854;SDS011;9053;53.358;6.382;2024-03-23T00:55:36;13.50;;;4.00;;
17854;SDS011;9053;53.358;6.382;2024-03-23T00:58:02;11.77;;;4.00;;
17854;SDS011;9053;53.358;6.382;2024-03-23T01:00:28;13.63;;;3.80;;
17854;SDS011;9053;53.358;6.382;2024-03-23T01:02:54;14.10;;;4.20;;
17854;SDS011;9053;53.358;6.382;2024-03-23T01:05:20;16.20;;;4.30;;
17854;SDS011;9053;53.358;6.382;2024-03-23T01:07:46;10.40;;;3.40;;
17854;SDS011;9053;53.358;6.382;2024-03-23T01:10:12;12.93;;;3.60;;
17854;SDS011;9053;53.358;6.382;2024-03-23T01:12:41;16.10;;;4.20;;
17854;SDS011;9053;53.358;6.382;2024-03-23T01:15:08;9.37;;;3.43;;
17854;SDS011;9053;53.358;6.382;2024-03-23T01:17:34;10.10;;;3.57;;
17854;SDS011;9053;53.358;6.382;2024-03-23T01:20:00;9.03;;;3.50;;
17854;SDS011;9053;53.358;6.382;2024-03-23T01:22:26;9.07;;;3.60;;
17854;SDS011;9053;53.358;6.382;2024-03-23T01:24:52;11.60;;;3.67;;
17854;SDS011;9053;53.358;6.382;2024-03-23T01:27:18;10.53;;;4.10;;
17854;SDS011;9053;53.358;6.382;2024-03-23T01:29:47;15.40;;;3.97;;
17854;SDS011;9053;53.358;6.382;2024-03-23T01:32:13;16.30;;;4.50;;
17854;SDS011;9053;53.358;6.382;2024-03-23T01:34:39;11.10;;;3.70;;
17854;SDS011;9053;53.358;6.382;2024-03-23T01:37:05;11.73;;;4.00;;
17854;SDS011;9053;53.358;6.382;2024-03-23T01:39:31;11.03;;;3.70;;
17854;SDS011;9053;53.358;6.382;2024-03-23T01:41:58;9.60;;;3.57;;
17854;SDS011;9053;53.358;6.382;2024-03-23T01:44:26;12.60;;;3.97;;
17854;SDS011;9053;53.358;6.382;2024-03-23T01:46:55;12.83;;;3.53;;
17854;SDS011;9053;53.358;6.382;2024-03-23T01:49:21;12.73;;;3.73;;
17854;SDS011;9053;53.358;6.382;2024-03-23T01:51:47;12.63;;;3.80;;
17854;SDS011;9053;53.358;6.382;2024-03-23T01:54:13;9.23;;;3.23;;
17854;SDS011;9053;53.358;6.382;2024-03-23T01:56:39;12.10;;;3.40;;
17854;SDS011;9053;53.358;6.382;2024-03-23T01:59:05;9.33;;;3.67;;
17854;SDS011;9053;53.358;6.382;2024-03-23T02:01:32;9.47;;;3.90;;
17854;SDS011;9053;53.358;6.382;2024-03-23T02:04:01;12.73;;;3.90;;
17854;SDS011;9053;53.358;6.382;2024-03-23T02:06:27;8.33;;;3.57;;
17854;SDS011;9053;53.358;6.382;2024-03-23T02:08:53;18.27;;;4.80;;
17854;SDS011;9053;53.358;6.382;2024-03-23T02:11:20;8.87;;;3.50;;
17854;SDS011;9053;53.358;6.382;2024-03-23T02:13:46;8.73;;;2.97;;
17854;SDS011;9053;53.358;6.382;2024-03-23T02:16:12;17.60;;;3.73;;
17854;SDS011;9053;53.358;6.382;2024-03-23T02:18:38;8.37;;;3.20;;
17854;SDS011;9053;53.358;6.382;2024-03-23T02:21:07;11.03;;;3.40;;
17854;SDS011;9053;53.358;6.382;2024-03-23T02:23:36;7.27;;;3.10;;
17854;SDS011;9053;53.358;6.382;2024-03-23T02:26:02;11.83;;;3.63;;
17854;SDS011;9053;53.358;6.382;2024-03-23T02:28:30;17.83;;;3.90;;
17854;SDS011;9053;53.358;6.382;2024-03-23T02:30:56;10.70;;;3.57;;
17854;SDS011;9053;53.358;6.382;2024-03-23T02:33:22;13.03;;;3.60;;
17854;SDS011;9053;53.358;6.382;2024-03-23T02:35:49;14.70;;;3.40;;
17854;SDS011;9053;53.358;6.382;2024-03-23T02:38:15;11.70;;;3.47;;
17854;SDS011;9053;53.358;6.382;2024-03-23T02:40:43;10.83;;;3.63;;
17854;SDS011;9053;53.358;6.382;2024-03-23T02:43:10;12.70;;;4.20;;
17854;SDS011;9053;53.358;6.382;2024-03-23T02:45:36;15.83;;;4.37;;
17854;SDS011;9053;53.358;6.382;2024-03-23T02:48:02;10.93;;;3.40;;
17854;SDS011;9053;53.358;6.382;2024-03-23T02:50:28;13.27;;;3.60;;
17854;SDS011;9053;53.358;6.382;2024-03-23T02:52:54;11.87;;;3.40;;
17854;SDS011;9053;53.358;6.382;2024-03-23T02:55:20;10.43;;;3.67;;
17854;SDS011;9053;53.358;6.382;2024-03-23T02:57:49;13.43;;;3.40;;
17854;SDS011;9053;53.358;6.382;2024-03-23T03:00:16;9.70;;;2.80;;
17854;SDS011;9053;53.358;6.382;2024-03-23T03:02:42;13.77;;;3.83;;
17854;SDS011;9053;53.358;6.382;2024-03-23T03:05:08;10.67;;;3.37;;
17854;SDS011;9053;53.358;6.382;2024-03-23T03:07:35;11.20;;;3.60;;
17854;SDS011;9053;53.358;6.382;2024-03-23T03:10:01;9.83;;;2.93;;
17854;SDS011;9053;53.358;6.382;2024-03-23T03:12:27;7.07;;;2.77;;
17854;SDS011;9053;53.358;6.382;2024-03-23T03:14:56;12.03;;;3.03;;
17854;SDS011;9053;53.358;6.382;2024-03-23T03:17:22;11.33;;;3.43;;
17854;SDS011;9053;53.358;6.382;2024-03-23T03:19:48;8.20;;;3.00;;
17854;SDS011;9053;53.358;6.382;2024-03-23T03:22:14;16.37;;;3.03;;
17854;SDS011;9053;53.358;6.382;2024-03-23T03:24:40;10.90;;;3.50;;
17854;SDS011;9053;53.358;6.382;2024-03-23T03:27:06;12.07;;;3.07;;
17854;SDS011;9053;53.358;6.382;2024-03-23T03:29:32;9.00;;;2.60;;
17854;SDS011;9053;53.358;6.382;2024-03-23T03:32:02;13.00;;;2.80;;
17854;SDS011;9053;53.358;6.382;2024-03-23T03:34:28;8.97;;;2.70;;
17854;SDS011;9053;53.358;6.382;2024-03-23T03:36:54;8.47;;;2.73;;
17854;SDS011;9053;53.358;6.382;2024-03-23T03:39:20;11.87;;;3.10;;
17854;SDS011;9053;53.358;6.382;2024-03-23T03:41:47;6.03;;;2.10;;
17854;SDS011;9053;53.358;6.382;2024-03-23T03:44:15;8.40;;;2.63;;
17854;SDS011;9053;53.358;6.382;2024-03-23T03:46:41;11.37;;;2.83;;
17854;SDS011;9053;53.358;6.382;2024-03-23T03:49:09;9.03;;;2.60;;
17854;SDS011;9053;53.358;6.382;2024-03-23T03:51:36;6.77;;;2.10;;
17854;SDS011;9053;53.358;6.382;2024-03-23T03:54:02;7.80;;;2.87;;
17854;SDS011;9053;53.358;6.382;2024-03-23T03:56:28;8.77;;;2.70;;
17854;SDS011;9053;53.358;6.382;2024-03-23T03:58:55;11.60;;;3.30;;
17854;SDS011;9053;53.358;6.382;2024-03-23T04:01:21;8.80;;;2.30;;
17854;SDS011;9053;53.358;6.382;2024-03-23T04:03:47;13.00;;;2.83;;
17854;SDS011;9053;53.358;6.382;2024-03-23T04:06:20;10.80;;;3.10;;
17854;SDS011;9053;53.358;6.382;2024-03-23T04:08:47;12.67;;;2.87;;
17854;SDS011;9053;53.358;6.382;2024-03-23T04:11:13;7.80;;;2.77;;
17854;SDS011;9053;53.358;6.382;2024-03-23T04:13:39;8.63;;;2.57;;
17854;SDS011;9053;53.358;6.382;2024-03-23T04:16:05;8.80;;;2.87;;
17854;SDS011;9053;53.358;6.382;2024-03-23T04:18:31;12.33;;;2.63;;
17854;SDS011;9053;53.358;6.382;2024-03-23T04:20:57;10.10;;;2.60;;
17854;SDS011;9053;53.358;6.382;2024-03-23T04:23:26;11.87;;;2.37;;
17854;SDS011;9053;53.358;6.382;2024-03-23T04:25:52;11.37;;;2.80;;
17854;SDS011;9053;53.358;6.382;2024-03-23T04:28:18;12.13;;;3.27;;
17854;SDS011;9053;53.358;6.382;2024-03-23T04:30:45;12.57;;;2.57;;
17854;SDS011;9053;53.358;6.382;2024-03-23T04:33:11;11.63;;;2.80;;
17854;SDS011;9053;53.358;6.382;2024-03-23T04:35:37;10.93;;;2.97;;
17854;SDS011;9053;53.358;6.382;2024-03-23T04:38:03;8.07;;;2.57;;
17854;SDS011;9053;53.358;6.382;2024-03-23T04:40:32;9.10;;;2.90;;
17854;SDS011;9053;53.358;6.382;2024-03-23T04:42:58;6.57;;;2.47;;
17854;SDS011;9053;53.358;6.382;2024-03-23T04:45:26;13.50;;;3.43;;
17854;SDS011;9053;53.358;6.382;2024-03-23T04:47:52;11.13;;;2.50;;
17854;SDS011;9053;53.358;6.382;2024-03-23T04:50:19;7.77;;;2.23;;
17854;SDS011;9053;53.358;6.382;2024-03-23T04:52:45;11.97;;;3.03;;
17854;SDS011;9053;53.358;6.382;2024-03-23T04:55:11;9.63;;;2.37;;
17854;SDS011;9053;53.358;6.382;2024-03-23T04:57:40;10.80;;;2.80;;
17854;SDS011;9053;53.358;6.382;2024-03-23T05:00:06;10.70;;;2.77;;
17854;SDS011;9053;53.358;6.382;2024-03-23T05:02:34;7.60;;;2.60;;
17854;SDS011;9053;53.358;6.382;2024-03-23T05:05:01;11.73;;;3.20;;
17854;SDS011;9053;53.358;6.382;2024-03-23T05:07:27;10.67;;;2.33;;
17854;SDS011;9053;53.358;6.382;2024-03-23T05:09:53;6.70;;;2.30;;
17854;SDS011;9053;53.358;6.382;2024-03-23T05:12:19;9.77;;;2.80;;
17854;SDS011;9053;53.358;6.382;2024-03-23T05:14:48;10.77;;;2.90;;
17854;SDS011;9053;53.358;6.382;2024-03-23T05:17:14;8.57;;;2.37;;
17854;SDS011;9053;53.358;6.382;2024-03-23T05:19:40;11.43;;;2.90;;
17854;SDS011;9053;53.358;6.382;2024-03-23T05:22:06;11.03;;;3.10;;
17854;SDS011;9053;53.358;6.382;2024-03-23T05:24:32;9.93;;;2.40;;
17854;SDS011;9053;53.358;6.382;2024-03-23T05:26:58;8.97;;;2.80;;
17854;SDS011;9053;53.358;6.382;2024-03-23T05:29:24;7.90;;;2.73;;
17854;SDS011;9053;53.358;6.382;2024-03-23T05:31:53;10.77;;;2.87;;
17854;SDS011;9053;53.358;6.382;2024-03-23T05:34:19;12.20;;;2.17;;
17854;SDS011;9053;53.358;6.382;2024-03-23T05:36:45;12.63;;;2.60;;
17854;SDS011;9053;53.358;6.382;2024-03-23T05:39:12;9.97;;;2.70;;
17854;SDS011;9053;53.358;6.382;2024-03-23T05:41:39;8.40;;;2.00;;
17854;SDS011;9053;53.358;6.382;2024-03-23T05:44:07;8.53;;;2.43;;
17854;SDS011;9053;53.358;6.382;2024-03-23T05:46:33;9.77;;;3.10;;
17854;SDS011;9053;53.358;6.382;2024-03-23T05:49:02;8.20;;;2.50;;
17854;SDS011;9053;53.358;6.382;2024-03-23T05:51:28;7.07;;;2.00;;
17854;SDS011;9053;53.358;6.382;2024-03-23T05:53:55;7.30;;;2.33;;
17854;SDS011;9053;53.358;6.382;2024-03-23T05:56:21;9.67;;;2.60;;
17854;SDS011;9053;53.358;6.382;2024-03-23T05:58:47;7.57;;;2.50;;
17854;SDS011;9053;53.358;6.382;2024-03-23T06:01:13;12.00;;;2.67;;
17854;SDS011;9053;53.358;6.382;2024-03-23T06:03:39;7.53;;;2.27;;
17854;SDS011;9053;53.358;6.382;2024-03-23T06:06:08;8.33;;;2.30;;
17854;SDS011;9053;53.358;6.382;2024-03-23T06:08:34;5.50;;;2.07;;
17854;SDS011;9053;53.358;6.382;2024-03-23T06:11:02;5.53;;;1.97;;
17854;SDS011;9053;53.358;6.382;2024-03-23T06:13:30;9.40;;;2.37;;
17854;SDS011;9053;53.358;6.382;2024-03-23T06:15:56;9.97;;;2.67;;
17854;SDS011;9053;53.358;6.382;2024-03-23T06:18:22;5.43;;;2.17;;
17854;SDS011;9053;53.358;6.382;2024-03-23T06:20:48;10.03;;;2.33;;
17854;SDS011;9053;53.358;6.382;2024-03-23T06:23:17;6.23;;;1.93;;
17854;SDS011;9053;53.358;6.382;2024-03-23T06:25:43;8.50;;;2.00;;
17854;SDS011;9053;53.358;6.382;2024-03-23T06:28:10;11.50;;;2.20;;
17854;SDS011;9053;53.358;6.382;2024-03-23T06:30:36;8.53;;;2.20;;
17854;SDS011;9053;53.358;6.382;2024-03-23T06:33:02;7.30;;;2.40;;
17854;SDS011;9053;53.358;6.382;2024-03-23T06:35:29;8.33;;;2.40;;
17854;SDS011;9053;53.358;6.382;2024-03-23T06:37:55;7.10;;;1.90;;
17854;SDS011;9053;53.358;6.382;2024-03-23T06:40:23;8.53;;;2.10;;
17854;SDS011;9053;53.358;6.382;2024-03-23T06:42:49;7.83;;;2.20;;
17854;SDS011;9053;53.358;6.382;2024-03-23T06:45:16;7.60;;;1.70;;
17854;SDS011;9053;53.358;6.382;2024-03-23T06:47:42;5.70;;;2.00;;
17854;SDS011;9053;53.358;6.382;2024-03-23T06:50:08;5.87;;;1.87;;
17854;SDS011;9053;53.358;6.382;2024-03-23T06:52:35;6.13;;;1.87;;
17854;SDS011;9053;53.358;6.382;2024-03-23T06:55:02;5.37;;;1.90;;
17854;SDS011;9053;53.358;6.382;2024-03-23T06:57:31;4.03;;;1.80;;
17854;SDS011;9053;53.358;6.382;2024-03-23T06:59:57;6.43;;;1.97;;
17854;SDS011;9053;53.358;6.382;2024-03-23T07:02:23;9.10;;;2.87;;
17854;SDS011;9053;53.358;6.382;2024-03-23T07:04:49;9.43;;;2.17;;
17854;SDS011;9053;53.358;6.382;2024-03-23T07:07:16;6.70;;;2.00;;
17854;SDS011;9053;53.358;6.382;2024-03-23T07:09:42;9.20;;;2.37;;
17854;SDS011;9053;53.358;6.382;2024-03-23T07:12:08;7.30;;;2.20;;
17854;SDS011;9053;53.358;6.382;2024-03-23T07:14:36;8.73;;;2.03;;
17854;SDS011;9053;53.358;6.382;2024-03-23T07:17:03;7.63;;;1.93;;
17854;SDS011;9053;53.358;6.382;2024-03-23T07:19:29;7.27;;;2.43;;
17854;SDS011;9053;53.358;6.382;2024-03-23T07:21:55;7.87;;;2.10;;
17854;SDS011;9053;53.358;6.382;2024-03-23T07:24:21;8.00;;;2.50;;
17854;SDS011;9053;53.358;6.382;2024-03-23T07:26:47;6.10;;;2.27;;
17854;SDS011;9053;53.358;6.382;2024-03-23T07:29:13;6.80;;;2.17;;
17854;SDS011;9053;53.358;6.382;2024-03-23T07:31:42;7.77;;;2.20;;
17854;SDS011;9053;53.358;6.382;2024-03-23T07:34:08;9.73;;;2.10;;
17854;SDS011;9053;53.358;6.382;2024-03-23T07:36:34;6.23;;;2.23;;
17854;SDS011;9053;53.358;6.382;2024-03-23T07:39:00;10.00;;;2.70;;
17854;SDS011;9053;53.358;6.382;2024-03-23T07:41:28;8.03;;;2.30;;
17854;SDS011;9053;53.358;6.382;2024-03-23T07:43:56;7.40;;;2.27;;
17854;SDS011;9053;53.358;6.382;2024-03-23T07:46:22;7.07;;;2.33;;
17854;SDS011;9053;53.358;6.382;2024-03-23T07:48:51;7.33;;;2.27;;
17854;SDS011;9053;53.358;6.382;2024-03-23T07:51:17;6.87;;;2.30;;
17854;SDS011;9053;53.358;6.382;2024-03-23T07:53:46;8.33;;;2.70;;
17854;SDS011;9053;53.358;6.382;2024-03-23T07:56:12;8.50;;;2.30;;
17854;SDS011;9053;53.358;6.382;2024-03-23T07:58:38;10.43;;;2.70;;
17854;SDS011;9053;53.358;6.382;2024-03-23T08:01:05;8.83;;;2.67;;
17854;SDS011;9053;53.358;6.382;2024-03-23T08:03:33;6.93;;;2.60;;
17854;SDS011;9053;53.358;6.382;2024-03-23T08:06:08;8.47;;;2.20;;
17854;SDS011;9053;53.358;6.382;2024-03-23T08:08:35;6.30;;;2.30;;
17854;SDS011;9053;53.358;6.382;2024-03-23T08:11:02;8.00;;;2.30;;
17854;SDS011;9053;53.358;6.382;2024-03-23T08:13:28;10.30;;;2.20;;
17854;SDS011;9053;53.358;6.382;2024-03-23T08:15:56;9.10;;;2.83;;
17854;SDS011;9053;53.358;6.382;2024-03-23T08:18:22;6.87;;;2.40;;
17854;SDS011;9053;53.358;6.382;2024-03-23T08:20:55;7.77;;;2.23;;
17854;SDS011;9053;53.358;6.382;2024-03-23T08:23:24;6.10;;;1.97;;
17854;SDS011;9053;53.358;6.382;2024-03-23T08:25:50;6.50;;;2.00;;
17854;SDS011;9053;53.358;6.382;2024-03-23T08:28:17;8.37;;;2.20;;
17854;SDS011;9053;53.358;6.382;2024-03-23T08:30:43;7.43;;;1.80;;
17854;SDS011;9053;53.358;6.382;2024-03-23T08:33:09;7.03;;;2.20;;
17854;SDS011;9053;53.358;6.382;2024-03-23T08:35:35;6.17;;;2.33;;
17854;SDS011;9053;53.358;6.382;2024-03-23T08:38:01;7.33;;;2.17;;
17854;SDS011;9053;53.358;6.382;2024-03-23T08:40:30;8.93;;;2.10;;
17854;SDS011;9053;53.358;6.382;2024-03-23T08:42:57;8.53;;;2.13;;
17854;SDS011;9053;53.358;6.382;2024-03-23T08:45:24;9.40;;;2.53;;
17854;SDS011;9053;53.358;6.382;2024-03-23T08:47:50;8.23;;;2.00;;
17854;SDS011;9053;53.358;6.382;2024-03-23T08:50:16;6.83;;;2.40;;
17854;SDS011;9053;53.358;6.382;2024-03-23T08:52:44;8.20;;;2.53;;
17854;SDS011;9053;53.358;6.382;2024-03-23T08:55:10;7.87;;;2.33;;
17854;SDS011;9053;53.358;6.382;2024-03-23T08:57:38;6.17;;;2.10;;
17854;SDS011;9053;53.358;6.382;2024-03-23T09:00:05;8.43;;;2.30;;
17854;SDS011;9053;53.358;6.382;2024-03-23T09:02:32;10.33;;;2.73;;
17854;SDS011;9053;53.358;6.382;2024-03-23T09:04:59;6.87;;;2.20;;
17854;SDS011;9053;53.358;6.382;2024-03-23T09:07:26;5.90;;;1.90;;
17854;SDS011;9053;53.358;6.382;2024-03-23T09:09:52;3.63;;;1.40;;
17854;SDS011;9053;53.358;6.382;2024-03-23T09:12:18;5.50;;;1.70;;
17854;SDS011;9053;53.358;6.382;2024-03-23T09:14:48;8.07;;;2.10;;
17854;SDS011;9053;53.358;6.382;2024-03-23T09:17:15;6.40;;;1.87;;
17854;SDS011;9053;53.358;6.382;2024-03-23T09:19:41;6.90;;;1.93;;
17854;SDS011;9053;53.358;6.382;2024-03-23T09:22:07;7.63;;;2.07;;
17854;SDS011;9053;53.358;6.382;2024-03-23T09:24:33;7.83;;;2.10;;
17854;SDS011;9053;53.358;6.382;2024-03-23T09:26:59;6.90;;;1.97;;
17854;SDS011;9053;53.358;6.382;2024-03-23T09:29:25;7.70;;;2.30;;
17854;SDS011;9053;53.358;6.382;2024-03-23T09:31:54;9.73;;;2.43;;
17854;SDS011;9053;53.358;6.382;2024-03-23T09:34:20;6.57;;;2.27;;
17854;SDS011;9053;53.358;6.382;2024-03-23T09:36:47;8.20;;;2.00;;
17854;SDS011;9053;53.358;6.382;2024-03-23T09:39:16;7.43;;;2.07;;
17854;SDS011;9053;53.358;6.382;2024-03-23T09:41:44;13.70;;;2.40;;
17854;SDS011;9053;53.358;6.382;2024-03-23T09:44:10;8.67;;;2.20;;
17854;SDS011;9053;53.358;6.382;2024-03-23T09:46:37;9.83;;;2.50;;
17854;SDS011;9053;53.358;6.382;2024-03-23T09:49:06;8.53;;;2.10;;
17854;SDS011;9053;53.358;6.382;2024-03-23T09:51:33;8.40;;;2.30;;
17854;SDS011;9053;53.358;6.382;2024-03-23T09:54:01;8.30;;;2.27;;
17854;SDS011;9053;53.358;6.382;2024-03-23T09:56:27;6.20;;;2.43;;
17854;SDS011;9053;53.358;6.382;2024-03-23T09:59:00;13.80;;;2.80;;
17854;SDS011;9053;53.358;6.382;2024-03-23T10:01:26;10.40;;;2.67;;
17854;SDS011;9053;53.358;6.382;2024-03-23T10:03:53;14.20;;;2.90;;
17854;SDS011;9053;53.358;6.382;2024-03-23T10:06:23;11.83;;;2.53;;
17854;SDS011;9053;53.358;6.382;2024-03-23T10:08:53;11.83;;;2.83;;
17854;SDS011;9053;53.358;6.382;2024-03-23T10:11:20;10.70;;;2.30;;
17854;SDS011;9053;53.358;6.382;2024-03-23T10:13:46;11.67;;;2.33;;
17854;SDS011;9053;53.358;6.382;2024-03-23T10:16:24;8.40;;;2.30;;
17854;SDS011;9053;53.358;6.382;2024-03-23T10:18:50;7.07;;;1.90;;
17854;SDS011;9053;53.358;6.382;2024-03-23T10:21:16;9.40;;;2.80;;
17854;SDS011;9053;53.358;6.382;2024-03-23T10:23:47;5.57;;;1.83;;
17854;SDS011;9053;53.358;6.382;2024-03-23T10:26:15;5.10;;;1.40;;
17854;SDS011;9053;53.358;6.382;2024-03-23T10:28:52;6.17;;;1.60;;
17854;SDS011;9053;53.358;6.382;2024-03-23T10:31:20;9.27;;;1.90;;
17854;SDS011;9053;53.358;6.382;2024-03-23T10:33:46;8.83;;;1.90;;
17854;SDS011;9053;53.358;6.382;2024-03-23T10:36:13;7.43;;;2.33;;
17854;SDS011;9053;53.358;6.382;2024-03-23T10:38:39;7.93;;;2.03;;
17854;SDS011;9053;53.358;6.382;2024-03-23T10:41:09;6.83;;;1.60;;
17854;SDS011;9053;53.358;6.382;2024-03-23T10:43:36;6.37;;;1.50;;
17854;SDS011;9053;53.358;6.382;2024-03-23T10:46:04;7.20;;;1.93;;
17854;SDS011;9053;53.358;6.382;2024-03-23T10:48:30;10.73;;;1.97;;
17854;SDS011;9053;53.358;6.382;2024-03-23T10:50:57;10.63;;;2.80;;
17854;SDS011;9053;53.358;6.382;2024-03-23T10:53:25;4.63;;;2.10;;
17854;SDS011;9053;53.358;6.382;2024-03-23T10:55:52;10.93;;;2.97;;
17854;SDS011;9053;53.358;6.382;2024-03-23T10:58:23;6.70;;;2.20;;
17854;SDS011;9053;53.358;6.382;2024-03-23T11:00:52;7.40;;;2.27;;
17854;SDS011;9053;53.358;6.382;2024-03-23T11:03:31;9.93;;;2.43;;
17854;SDS011;9053;53.358;6.382;2024-03-23T11:05:58;5.53;;;1.40;;
17854;SDS011;9053;53.358;6.382;2024-03-23T11:08:32;7.13;;;1.90;;
17854;SDS011;9053;53.358;6.382;2024-03-23T11:11:13;4.33;;;1.60;;
17854;SDS011;9053;53.358;6.382;2024-03-23T11:13:42;6.30;;;1.90;;
17854;SDS011;9053;53.358;6.382;2024-03-23T11:16:22;7.03;;;2.07;;
17854;SDS011;9053;53.358;6.382;2024-03-23T11:18:48;11.37;;;2.53;;
17854;SDS011;9053;53.358;6.382;2024-03-23T11:24:14;9.67;;;2.90;;
17854;SDS011;9053;53.358;6.382;2024-03-23T11:26:40;10.53;;;2.30;;
17854;SDS011;9053;53.358;6.382;2024-03-23T11:29:12;13.00;;;2.67;;
17854;SDS011;9053;53.358;6.382;2024-03-23T11:31:39;9.50;;;2.63;;
17854;SDS011;9053;53.358;6.382;2024-03-23T11:34:11;8.80;;;2.47;;
17854;SDS011;9053;53.358;6.382;2024-03-23T11:36:38;7.87;;;2.67;;
17854;SDS011;9053;53.358;6.382;2024-03-23T11:39:11;11.77;;;2.67;;
17854;SDS011;9053;53.358;6.382;2024-03-23T11:41:45;6.57;;;1.60;;
17854;SDS011;9053;53.358;6.382;2024-03-23T11:44:20;4.60;;;1.43;;
17854;SDS011;9053;53.358;6.382;2024-03-23T11:46:47;7.33;;;1.60;;
17854;SDS011;9053;53.358;6.382;2024-03-23T11:49:19;5.90;;;1.53;;
17854;SDS011;9053;53.358;6.382;2024-03-23T11:51:47;8.73;;;1.90;;
17854;SDS011;9053;53.358;6.382;2024-03-23T11:54:13;8.37;;;2.57;;
17854;SDS011;9053;53.358;6.382;2024-03-23T11:56:39;7.13;;;1.90;;
17854;SDS011;9053;53.358;6.382;2024-03-23T11:59:06;8.33;;;2.33;;
17854;SDS011;9053;53.358;6.382;2024-03-23T12:01:35;9.60;;;3.07;;
17854;SDS011;9053;53.358;6.382;2024-03-23T12:04:03;11.40;;;2.43;;
17854;SDS011;9053;53.358;6.382;2024-03-23T12:06:29;9.03;;;2.07;;
17854;SDS011;9053;53.358;6.382;2024-03-23T12:09:05;8.20;;;2.30;;
17854;SDS011;9053;53.358;6.382;2024-03-23T12:11:33;12.97;;;3.10;;
17854;SDS011;9053;53.358;6.382;2024-03-23T12:14:00;13.53;;;2.77;;
17854;SDS011;9053;53.358;6.382;2024-03-23T12:16:26;13.77;;;3.40;;
17854;SDS011;9053;53.358;6.382;2024-03-23T12:18:55;9.00;;;2.40;;
17854;SDS011;9053;53.358;6.382;2024-03-23T12:21:33;10.43;;;2.23;;
17854;SDS011;9053;53.358;6.382;2024-03-23T12:24:01;10.90;;;2.30;;
17854;SDS011;9053;53.358;6.382;2024-03-23T12:26:27;18.13;;;3.03;;
17854;SDS011;9053;53.358;6.382;2024-03-23T12:28:53;11.10;;;3.00;;
17854;SDS011;9053;53.358;6.382;2024-03-23T12:31:19;11.43;;;3.10;;
17854;SDS011;9053;53.358;6.382;2024-03-23T12:33:45;9.73;;;2.40;;
17854;SDS011;9053;53.358;6.382;2024-03-23T12:36:14;13.87;;;2.90;;
17854;SDS011;9053;53.358;6.382;2024-03-23T12:38:40;7.33;;;2.60;;
17854;SDS011;9053;53.358;6.382;2024-03-23T12:41:06;12.67;;;2.60;;
17854;SDS011;9053;53.358;6.382;2024-03-23T12:43:34;14.47;;;2.70;;
17854;SDS011;9053;53.358;6.382;2024-03-23T12:46:01;7.73;;;2.33;;
17854;SDS011;9053;53.358;6.382;2024-03-23T12:48:28;10.30;;;2.30;;
17854;SDS011;9053;53.358;6.382;2024-03-23T12:50:54;16.10;;;2.93;;
17854;SDS011;9053;53.358;6.382;2024-03-23T12:53:23;6.53;;;2.17;;
17854;SDS011;9053;53.358;6.382;2024-03-23T12:55:49;9.10;;;1.73;;
17854;SDS011;9053;53.358;6.382;2024-03-23T12:58:17;8.80;;;2.10;;
17854;SDS011;9053;53.358;6.382;2024-03-23T13:00:43;8.37;;;2.30;;
17854;SDS011;9053;53.358;6.382;2024-03-23T13:03:13;5.73;;;1.80;;
17854;SDS011;9053;53.358;6.382;2024-03-23T13:05:39;11.17;;;2.43;;
17854;SDS011;9053;53.358;6.382;2024-03-23T13:08:06;8.23;;;2.40;;
17854;SDS011;9053;53.358;6.382;2024-03-23T13:10:35;12.10;;;2.50;;
17854;SDS011;9053;53.358;6.382;2024-03-23T13:13:01;11.43;;;2.90;;
17854;SDS011;9053;53.358;6.382;2024-03-23T13:15:27;13.73;;;3.43;;
17854;SDS011;9053;53.358;6.382;2024-03-23T13:17:54;12.67;;;2.53;;
17854;SDS011;9053;53.358;6.382;2024-03-23T13:20:20;12.27;;;2.90;;
17854;SDS011;9053;53.358;6.382;2024-03-23T13:22:46;10.43;;;2.80;;
17854;SDS011;9053;53.358;6.382;2024-03-23T13:25:43;8.93;;;2.80;;
17854;SDS011;9053;53.358;6.382;2024-03-23T13:28:15;13.17;;;2.93;;
17854;SDS011;9053;53.358;6.382;2024-03-23T13:30:49;10.47;;;2.20;;
17854;SDS011;9053;53.358;6.382;2024-03-23T13:33:18;10.57;;;2.33;;
17854;SDS011;9053;53.358;6.382;2024-03-23T13:35:51;8.27;;;2.47;;
17854;SDS011;9053;53.358;6.382;2024-03-23T13:38:46;8.33;;;2.10;;
17854;SDS011;9053;53.358;6.382;2024-03-23T13:41:15;11.50;;;2.87;;
17854;SDS011;9053;53.358;6.382;2024-03-23T13:43:42;13.43;;;3.00;;
17854;SDS011;9053;53.358;6.382;2024-03-23T13:46:10;9.87;;;2.30;;
17854;SDS011;9053;53.358;6.382;2024-03-23T13:48:36;6.97;;;2.20;;
17854;SDS011;9053;53.358;6.382;2024-03-23T13:51:03;8.53;;;2.40;;
17854;SDS011;9053;53.358;6.382;2024-03-23T13:53:30;8.97;;;2.30;;
17854;SDS011;9053;53.358;6.382;2024-03-23T13:55:57;10.93;;;2.57;;
17854;SDS011;9053;53.358;6.382;2024-03-23T13:58:26;9.07;;;2.57;;
17854;SDS011;9053;53.358;6.382;2024-03-23T14:00:56;11.43;;;2.90;;
17854;SDS011;9053;53.358;6.382;2024-03-23T14:03:24;8.87;;;2.63;;
17854;SDS011;9053;53.358;6.382;2024-03-23T14:05:51;10.17;;;2.53;;
17854;SDS011;9053;53.358;6.382;2024-03-23T14:08:17;15.33;;;3.03;;
17854;SDS011;9053;53.358;6.382;2024-03-23T14:10:44;7.77;;;2.20;;
17854;SDS011;9053;53.358;6.382;2024-03-23T14:13:10;8.23;;;2.20;;
17854;SDS011;9053;53.358;6.382;2024-03-23T14:15:39;7.50;;;2.13;;
17854;SDS011;9053;53.358;6.382;2024-03-23T14:18:05;11.33;;;2.73;;
17854;SDS011;9053;53.358;6.382;2024-03-23T14:20:31;11.87;;;2.93;;
17854;SDS011;9053;53.358;6.382;2024-03-23T14:22:57;8.37;;;2.90;;
17854;SDS011;9053;53.358;6.382;2024-03-23T14:25:24;12.60;;;2.27;;
17854;SDS011;9053;53.358;6.382;2024-03-23T14:27:51;13.60;;;3.27;;
17854;SDS011;9053;53.358;6.382;2024-03-23T14:30:17;8.97;;;2.57;;
17854;SDS011;9053;53.358;6.382;2024-03-23T14:32:46;10.30;;;2.60;;
17854;SDS011;9053;53.358;6.382;2024-03-23T14:35:14;7.40;;;2.23;;
17854;SDS011;9053;53.358;6.382;2024-03-23T14:37:40;9.07;;;2.47;;
17854;SDS011;9053;53.358;6.382;2024-03-23T14:40:07;11.80;;;2.43;;
17854;SDS011;9053;53.358;6.382;2024-03-23T14:42:34;10.97;;;2.80;;
17854;SDS011;9053;53.358;6.382;2024-03-23T14:45:03;10.67;;;2.90;;
17854;SDS011;9053;53.358;6.382;2024-03-23T14:47:31;12.13;;;2.77;;
17854;SDS011;9053;53.358;6.382;2024-03-23T14:50:00;6.33;;;2.03;;
17854;SDS011;9053;53.358;6.382;2024-03-23T14:52:34;9.77;;;2.10;;
17854;SDS011;9053;53.358;6.382;2024-03-23T14:55:00;10.70;;;2.50;;
17854;SDS011;9053;53.358;6.382;2024-03-23T14:57:26;10.23;;;2.83;;
17854;SDS011;9053;53.358;6.382;2024-03-23T14:59:52;10.80;;;2.40;;
17854;SDS011;9053;53.358;6.382;2024-03-23T15:02:18;9.67;;;2.27;;
17854;SDS011;9053;53.358;6.382;2024-03-23T15:04:44;8.57;;;2.20;;
17854;SDS011;9053;53.358;6.382;2024-03-23T15:07:13;10.83;;;2.70;;
17854;SDS011;9053;53.358;6.382;2024-03-23T15:09:39;9.83;;;2.23;;
17854;SDS011;9053;53.358;6.382;2024-03-23T15:12:05;9.70;;;2.43;;
17854;SDS011;9053;53.358;6.382;2024-03-23T15:14:32;10.20;;;2.37;;
17854;SDS011;9053;53.358;6.382;2024-03-23T15:16:59;9.70;;;2.27;;
17854;SDS011;9053;53.358;6.382;2024-03-23T15:19:25;7.20;;;2.20;;
17854;SDS011;9053;53.358;6.382;2024-03-23T15:21:51;11.50;;;2.33;;
17854;SDS011;9053;53.358;6.382;2024-03-23T15:24:20;11.07;;;2.33;;
17854;SDS011;9053;53.358;6.382;2024-03-23T15:26:46;8.03;;;2.27;;
17854;SDS011;9053;53.358;6.382;2024-03-23T15:29:12;9.57;;;2.10;;
17854;SDS011;9053;53.358;6.382;2024-03-23T15:31:38;9.67;;;2.17;;
17854;SDS011;9053;53.358;6.382;2024-03-23T15:34:04;9.23;;;2.10;;
17854;SDS011;9053;53.358;6.382;2024-03-23T15:36:32;7.77;;;2.43;;
17854;SDS011;9053;53.358;6.382;2024-03-23T15:38:58;9.30;;;2.37;;
17854;SDS011;9053;53.358;6.382;2024-03-23T15:41:26;7.30;;;1.93;;
17854;SDS011;9053;53.358;6.382;2024-03-23T15:43:54;7.17;;;2.10;;
17854;SDS011;9053;53.358;6.382;2024-03-23T15:46:20;4.93;;;1.90;;
17854;SDS011;9053;53.358;6.382;2024-03-23T15:48:47;8.47;;;2.07;;
17854;SDS011;9053;53.358;6.382;2024-03-23T15:51:13;14.43;;;2.50;;